createdAt,value
2019-05-16T11:45:30.548Z,2.00
2019-05-16T11:47:58.293Z,1.85
2019-05-16T11:50:28.073Z,1.92
2019-05-16T11:52:56.916Z,1.70
2019-05-16T11:55:32.281Z,2.10
2019-05-16T11:57:56.745Z,1.98
2019-05-16T12:00:24.091Z,2.12
2019-05-16T12:02:51.742Z,1.90
2019-05-16T12:05:19.299Z,2.10
2019-05-16T12:07:48.587Z,2.00
2019-05-16T12:10:16.590Z,2.10
2019-05-16T12:12:44.233Z,1.85
2019-05-16T12:15:12.269Z,2.10
2019-05-16T12:17:39.968Z,2.10
2019-05-16T12:20:08.129Z,2.33
2019-05-16T12:22:37.734Z,2.17
2019-05-16T12:25:08.179Z,1.92
2019-05-16T12:27:41.972Z,2.10
2019-05-16T12:30:12.963Z,2.10
2019-05-16T12:32:37.190Z,2.45
2019-05-16T12:35:06.521Z,2.70
2019-05-16T12:37:37.155Z,2.20
2019-05-16T12:40:07.976Z,2.10
2019-05-16T12:42:36.534Z,2.67
2019-05-16T12:45:07.027Z,2.27
2019-05-16T12:54:22.015Z,3.30
2019-05-16T12:56:49.766Z,3.65
2019-05-16T12:59:20.597Z,3.50
2019-05-16T13:01:48.190Z,4.23
2019-05-16T13:04:18.953Z,4.20
2019-05-16T13:06:47.141Z,4.72
2019-05-16T13:09:14.940Z,5.70
2019-05-16T13:11:42.501Z,4.67
2019-05-16T13:14:11.391Z,7.92
2019-05-16T13:16:39.264Z,5.20
2019-05-16T13:19:23.205Z,8.38
2019-05-16T13:25:07.415Z,5.50
2019-05-16T13:27:37.015Z,11.20
2019-05-16T13:30:07.391Z,8.00
2019-05-16T13:32:37.531Z,14.80
2019-05-16T13:35:07.640Z,14.73
2019-05-16T13:37:35.512Z,11.73
2019-05-16T13:40:07.907Z,11.30
2019-05-16T13:42:36.864Z,4.08
2019-05-16T13:45:07.719Z,3.50
2019-05-16T13:47:37.660Z,2.37
2019-05-16T13:50:11.575Z,1.80
2019-05-16T13:52:36.667Z,1.80
2019-05-16T13:55:07.042Z,1.60
2019-05-16T13:57:37.124Z,1.95
2019-05-16T14:00:07.572Z,1.85
2019-05-16T14:02:37.562Z,2.08
2019-05-16T14:05:07.539Z,1.90
2019-05-16T14:07:37.340Z,6.10
2019-05-16T14:10:07.270Z,5.62
2019-05-16T14:12:36.743Z,6.28
2019-05-16T14:15:08.452Z,5.40
2019-05-16T14:17:37.007Z,10.68
2019-05-16T14:20:14.407Z,14.30
2019-05-16T14:22:38.696Z,5.92
2019-05-16T14:25:07.302Z,2.40
2019-05-16T14:27:34.990Z,3.98
2019-05-16T14:30:07.549Z,4.17
2019-05-16T14:32:40.521Z,1.80
2019-05-16T14:35:08.572Z,2.80
2019-05-16T14:37:37.858Z,3.22
2019-05-16T14:40:06.083Z,3.75
2019-05-16T14:42:33.563Z,3.62
2019-05-16T14:45:10.872Z,2.92
2019-05-16T14:47:30.980Z,3.45
2019-05-16T14:49:58.615Z,2.70
2019-05-16T14:52:27.966Z,2.70
2019-05-16T14:54:57.529Z,2.62
2019-05-16T14:57:27.388Z,2.87
2019-05-16T14:59:56.564Z,2.02
2019-05-16T15:02:27.255Z,2.25
2019-05-16T15:04:53.935Z,1.77
2019-05-16T15:07:21.577Z,2.70
2019-05-16T15:09:49.266Z,2.00
2019-05-16T15:12:17.352Z,2.00
2019-05-16T15:14:45.147Z,2.02
2019-05-16T15:17:12.770Z,2.22
2019-05-16T15:19:40.528Z,1.62
2019-05-16T15:22:08.248Z,2.75
2019-05-16T15:24:37.073Z,7.37
2019-05-16T15:27:07.914Z,1.35
2019-05-16T15:29:34.473Z,1.60
2019-05-16T15:32:02.139Z,1.60
2019-05-16T15:34:30.320Z,1.67
2019-05-16T15:36:59.965Z,1.35
2019-05-16T15:39:27.992Z,1.75
2019-05-16T15:41:56.625Z,1.15
2019-05-16T15:44:24.525Z,1.42
2019-05-16T15:46:52.198Z,1.92
2019-05-16T15:49:20.186Z,1.32
2019-05-16T15:51:47.707Z,1.72
2019-05-16T15:54:21.942Z,1.62
2019-05-16T15:56:49.473Z,1.57
2019-05-16T15:59:18.178Z,3.70
2019-05-16T16:01:47.371Z,2.70
2019-05-16T16:04:17.555Z,1.45
2019-05-16T16:06:47.383Z,2.40
2019-05-16T16:09:17.265Z,1.30
2019-05-16T16:11:44.583Z,1.20
2019-05-16T16:14:13.870Z,1.47
2019-05-16T16:16:41.511Z,1.67
2019-05-16T16:19:09.277Z,1.77
2019-05-16T16:21:38.019Z,1.42
2019-05-16T16:24:09.210Z,1.87
2019-05-16T16:26:38.157Z,1.05
2019-05-16T16:30:12.241Z,1.55
2019-05-16T16:32:40.238Z,1.10
2019-05-16T16:35:08.356Z,1.45
2019-05-16T16:37:37.688Z,1.40
2019-05-16T16:41:49.497Z,1.20
2019-05-16T16:46:42.254Z,0.95
2019-05-16T16:50:42.422Z,1.27
2019-05-16T16:53:30.977Z,2.00
2019-05-16T16:57:47.370Z,2.10
2019-05-16T17:00:17.291Z,2.08
2019-05-16T17:02:58.429Z,2.90
2019-05-16T17:05:42.114Z,3.33
2019-05-16T17:08:10.863Z,5.45
2019-05-16T17:10:39.557Z,4.03
2019-05-16T17:13:09.665Z,4.30
2019-05-16T17:15:38.376Z,7.58
2019-05-16T17:18:07.302Z,3.25
2019-05-16T17:31:01.765Z,2.47
2019-05-16T17:33:33.572Z,2.58
2019-05-16T17:36:09.254Z,1.20
2019-05-16T17:38:38.929Z,1.50
2019-05-16T17:41:10.464Z,1.25
2019-05-16T17:43:42.124Z,3.75
2019-05-16T17:46:13.865Z,2.12
2019-05-16T17:48:46.799Z,1.22
2019-05-16T17:51:18.563Z,1.55
2019-05-16T17:53:50.041Z,2.83
2019-05-16T17:58:52.097Z,1.20
2019-05-16T18:01:23.682Z,2.08
2019-05-16T18:03:57.216Z,1.75
2019-05-16T18:06:29.122Z,1.42
2019-05-16T18:09:00.805Z,1.20
2019-05-16T18:11:32.552Z,2.35
2019-05-16T18:14:06.163Z,1.95
2019-05-16T18:16:51.726Z,1.40
2019-05-16T18:19:11.314Z,2.30
2019-05-16T18:21:42.978Z,1.77
2019-05-16T18:24:16.724Z,1.85
2019-05-16T18:26:48.129Z,1.65
2019-05-16T18:29:19.871Z,1.72
2019-05-16T18:31:51.540Z,1.82
2019-05-16T18:34:23.187Z,2.80
2019-05-16T18:36:57.086Z,3.20
2019-05-16T18:39:28.437Z,2.40
2019-05-16T18:42:00.041Z,1.15
2019-05-16T18:44:32.392Z,2.47
2019-05-16T18:47:08.444Z,1.47
2019-05-16T18:49:37.832Z,1.40
2019-05-16T18:52:09.536Z,2.08
2019-05-16T18:54:41.288Z,1.70
2019-05-16T18:57:12.808Z,1.90
2019-05-16T18:59:46.260Z,2.98
2019-05-16T19:02:18.099Z,2.42
2019-05-16T19:04:50.289Z,2.20
2019-05-16T19:07:22.284Z,1.80
2019-05-16T19:09:53.881Z,2.35
2019-05-16T19:12:26.276Z,1.60
2019-05-16T19:15:00.241Z,2.05
2019-05-16T19:17:31.563Z,2.35
2019-05-16T19:20:03.448Z,2.08
2019-05-16T19:22:37.158Z,2.22
2019-05-16T19:25:09.430Z,1.57
2019-05-16T19:27:41.192Z,1.82
2019-05-16T19:30:13.924Z,1.50
2019-05-16T19:32:46.875Z,1.62
2019-05-16T19:35:18.913Z,1.98
2019-05-16T19:37:50.645Z,1.50
2019-05-16T19:40:22.543Z,1.67
2019-05-16T19:42:56.567Z,2.08
2019-05-16T19:45:28.223Z,1.57
2019-05-16T19:47:59.921Z,1.37
2019-05-16T19:50:31.621Z,1.95
2019-05-16T19:53:03.284Z,2.00
2019-05-16T19:55:36.523Z,1.30
2019-05-16T19:58:10.330Z,1.85
2019-05-16T20:00:42.559Z,1.87
2019-05-16T20:03:16.523Z,1.47
2019-05-16T20:05:47.981Z,1.77
2019-05-16T20:08:19.740Z,2.52
2019-05-16T20:10:51.576Z,1.98
2019-05-16T20:13:23.404Z,2.10
2019-05-16T20:15:56.513Z,1.98
2019-05-16T20:18:28.535Z,2.17
2019-05-16T20:21:00.641Z,1.70
2019-05-16T20:23:32.128Z,1.27
2019-05-16T20:28:34.233Z,1.17
2019-05-16T20:31:07.884Z,2.40
2019-05-16T20:33:39.510Z,1.50
2019-05-16T20:36:11.167Z,2.05
2019-05-16T20:38:42.984Z,1.35
2019-05-16T20:41:16.901Z,1.30
2019-05-16T20:43:48.246Z,1.72
2019-05-16T20:46:19.943Z,1.60
2019-05-16T20:48:51.491Z,1.40
2019-05-16T20:53:53.428Z,1.95
2019-05-16T20:56:26.534Z,1.65
2019-05-16T20:58:58.286Z,1.70
2019-05-16T21:01:29.859Z,1.40
2019-05-16T21:04:01.464Z,2.40
2019-05-16T21:06:33.417Z,1.77
2019-05-16T21:09:06.740Z,1.70
2019-05-16T21:11:38.536Z,2.10
2019-05-16T21:14:10.167Z,1.40
2019-05-16T21:16:41.872Z,2.08
2019-05-16T21:19:13.674Z,1.32
2019-05-16T21:21:47.093Z,1.30
2019-05-16T21:24:18.830Z,1.65
2019-05-16T21:26:50.517Z,3.85
2019-05-16T21:29:22.348Z,2.00
2019-05-16T21:31:56.485Z,1.65
2019-05-16T21:34:27.597Z,1.40
2019-05-16T21:37:11.292Z,1.25
2019-05-16T21:39:32.811Z,1.30
2019-05-16T21:42:07.217Z,1.20
2019-05-16T21:44:37.775Z,1.27
2019-05-16T21:47:09.562Z,1.80
2019-05-16T21:49:41.314Z,4.90
2019-05-16T21:52:13.102Z,2.20
2019-05-16T21:54:47.052Z,2.27
2019-05-16T21:57:19.934Z,1.80
2019-05-16T21:59:51.635Z,2.30
2019-05-16T22:02:23.486Z,1.60
2019-05-16T22:04:56.898Z,1.32
2019-05-16T22:07:33.632Z,1.35
2019-05-16T22:10:03.100Z,1.52
2019-05-16T22:12:34.956Z,1.67
2019-05-16T22:15:07.397Z,1.07
2019-05-16T22:17:39.161Z,1.30
2019-05-16T22:20:11.434Z,1.55
2019-05-16T22:22:43.115Z,1.98
2019-05-16T22:25:16.733Z,1.60
2019-05-16T22:27:49.031Z,1.30
